Accueil
METAR-TAF:

METAR-TAF

Aéroports :

Aéroport de Bruxelles. Zaventem

Bruxelles, Belgique

latitude: 50-54N, longitude: 004-32E, altitude: 55 m

Observation

Le bulletin a été fait il y a 24 minutes, à 16:50 UTC
Vent 8 kt de nord-est
Température 5°C
Humidité 41%
Pression 1030 hPa
Visibilité 10 km ou plus
pas de nuages en-dessous de 1500 mètres et pas de cumulonimbus.

METAR: EBBR 051650Z 05008KT CAVOK 05/M07 Q1030 NOSIG

Heure: 18:14 (17:14 UTC)

Prévision

Le bulletin a été fait il y a 6 heures et 3 minutes, à 11:11 UTC
Prévision valable du 05 à 12 UTC au 06 à 18 UTC
Vent 11 kt de nord-est
Visibilité 10 km ou plus
Quelques nuages à une hauteur de 3500 ft
Probabilité 30% :
Temporairement
du 06 à 06 UTC au 06 à 08 UTC
Visibilité: 4000 m
brume

TAF: EBBR 051111Z 0512/0618 04011KT 9999 FEW035 PROB30 TEMPO 0606/0608 4000 BR

Observations et prévisions météorologiques de plus de 4000 aéroports (messages METAR et TAF).

Les stations disponibles sont représentées par des disques jaunes et rouges sur la carte.

Passer la souris dessus pour voir le nom de la station.

Cliquer dessus pour voir les observations et prévisions météorologiques.

Pour changer de carte: cliquez sur les boutons verts avec une croix noire pour zoomer, sur le bouton vert avec un tiret pour effectuer un zoom arrière, ou sur les flèches vertes pour les cartes adjacentes.


METAR-TAF: